Airfield :







YOU CAN JOIN US ON...

 
LOGIN :

Register | Disclaimer

   EN    FR    IT 

 









Legend :    VFR   Marginal VFR   IFR   Intensive IFR   Very Intensive IFR
Visi :
Ceiling :
>= 8 km
>= 3000ft
5 to 8 km
1000 to 3000 ft
1500m to 5 km
500 to 1000 ft
800 to 1500m
200 to 500 ft
< 800m
< 200 ft
Symbols :   Thunderstorms  Fog  Heavy snow  Heavy precipitations  Wind > 20 kt






- Airport Elevation : 169 ft
- IATA code : BGI


TBPB - Grantley Adams Int.

CURRENT METAR :
  • 291900Z 10023KT 2000 +RA SCT010 25/24 Q1008 NOSIG

EXPIRED METARs :
  • 291840Z 10020G33KT 1000 +RA BKN034 25/24 Q1008 NOSIG
  • 291800Z 11022KT 3000 RA SCT010 SCT034 25/24 Q1008 NOSIG
  • 291719Z 11026G36KT 1000 +RA SCT010 25/24 Q1009 NOSIG
  • 291700Z 11026KT 3000 RA BKN010 25/24 Q1009 RESHRA NOSIG

TAF TAF TBPB
Valid from the 29 at 18:00 until the 30 at 18:00 UTC


291700Z 2918/3018 10020KT 8000 RA BKN014 FEW015CB SCT032
TEMPO 2918/2922 10020G34KT 1000 +SHRA FEW015CB
TTZP FIR / North America



MET'MAP, your aeronautical weather chart ! - Copyright ORBIFLY December 2007 - Disclaimer

ORBIFLY MET'MAP TEAM :

Programming & Development : Alexandra Zaïnal
Concept & original design : Baudouin d'Aumeries
Assistance for programming : Marc-Olivier Méhu
Technical & hardware support : Manuel Goepfert

Contact : metmap@orbifly.com




SOURCES & CREDITS :

   NOAA